Time,TemperatureF,DewpointF,PressureIn,WindDirection,WindDirectionDegrees,WindSpeedMPH,WindSpeedGustMPH,Humidity,HourlyPrecipIn,Conditions,Clouds,dailyrainin,SoftwareType,DateUTC
2013-03-30 17:43:00,67.3,33.1,29.89,ESE,111,7.2,7.2,28,0.00, ,SKC,-99.99,VWS V12.07,2013-03-30 15:43:00,
2013-03-30 17:46:00,67.1,33.8,29.89,ESE,117,7.6,7.6,29,0.00, ,SKC,-99.99,VWS V12.07,2013-03-30 15:46:00,
2013-03-30 17:51:00,66.7,33.5,29.89,East,98,4.9,7.6,29,0.00, ,SKC,-99.99,VWS V12.07,2013-03-30 15:51:00,
2013-03-30 17:55:00,66.6,33.3,29.89,West,278,0.0,7.6,29,0.00, ,SKC,-99.99,VWS V12.07,2013-03-30 15:55:00,
2013-03-30 18:00:00,66.4,33.2,29.89,ESE,118,0.0,7.6,29,0.00, ,SKC,-99.99,VWS V12.07,2013-03-30 16:00:00,
2013-03-30 18:06:00,66.2,33.0,29.89,East,96,3.1,4.0,29,0.00, ,SKC,-99.99,VWS V12.07,2013-03-30 16:06:00,
2013-03-30 18:12:00,66.0,32.0,29.89,East,86,0.0,5.8,28,0.00, ,SKC,-99.99,VWS V12.07,2013-03-30 16:12:00,
2013-03-30 18:17:00,65.8,32.7,29.89,NNW,330,3.6,6.3,29,0.00, ,SKC,-99.99,VWS V12.07,2013-03-30 16:17:00,
2013-03-30 18:22:00,65.5,34.1,29.89,NE,35,0.0,2.2,31,0.00, ,SKC,-99.99,VWS V12.07,2013-03-30 16:22:00,
2013-03-30 18:28:00,64.9,34.4,29.89,ENE,68,3.6,3.6,32,0.00, ,SKC,-99.99,VWS V12.07,2013-03-30 16:28:00,
2013-03-30 18:33:00,64.6,34.8,29.89,North,357,2.2,3.6,33,0.00, ,SKC,-99.99,VWS V12.07,2013-03-30 16:33:00,
2013-03-30 18:38:00,64.4,34.7,29.89,East,82,0.0,4.0,33,0.00, ,SKC,-99.99,VWS V12.07,2013-03-30 16:38:00,
2013-03-30 18:43:00,64.2,35.3,29.89,NNE,32,0.0,4.9,34,0.00, ,SKC,-99.99,VWS V12.07,2013-03-30 16:43:00,
2013-03-30 23:10:00,59.4,36.3,29.89,NNE,24,0.0,0.0,42,0.00, ,SKC,-99.99,VWS V12.07,2013-03-30 21:10:00,
2013-03-30 23:15:00,59.2,36.1,29.89,NNE,24,0.0,0.0,42,0.00, ,SKC,-99.99,VWS V12.07,2013-03-30 21:15:00,
2013-03-30 23:20:00,59.2,35.5,29.89,NNE,24,0.0,0.0,41,0.00, ,SKC,-99.99,VWS V12.07,2013-03-30 21:20:00,
2013-03-30 23:25:00,59.2,35.5,29.89,NNE,24,0.0,0.0,41,0.00, ,SKC,-99.99,VWS V12.07,2013-03-30 21:25:00,
2013-03-30 23:30:00,59.2,35.5,29.89,NNE,24,0.0,0.0,41,0.00, ,SKC,-99.99,VWS V12.07,2013-03-30 21:30:00,
2013-03-30 23:35:00,59.2,34.9,29.89,NNE,24,0.0,0.0,40,0.00, ,SKC,-99.99,VWS V12.07,2013-03-30 21:35:00,
2013-03-30 23:40:00,59.0,34.7,29.89,NNE,24,0.0,0.0,40,0.00, ,SKC,-99.99,VWS V12.07,2013-03-30 21:40:00,
2013-03-30 23:46:00,58.8,34.6,29.89,NNE,24,0.0,0.0,40,0.00, ,SKC,-99.99,VWS V12.07,2013-03-30 21:46:00,
2013-03-30 23:52:00,59.0,34.7,29.89,NNE,24,0.0,0.0,40,0.00, ,SKC,-99.99,VWS V12.07,2013-03-30 21:52:00,
2013-03-30 23:57:00,58.8,34.6,29.89,NNE,24,0.0,0.0,40,0.00, ,SKC,-99.99,VWS V12.07,2013-03-30 21:57:00,